sensor_id;sensor_type;location;lat;lon;timestamp;temperature;humidity
16116;DHT22;8162;47.104;15.432;2022-11-15T00:00:51;9.30;87.70
16116;DHT22;8162;47.104;15.432;2022-11-15T00:03:18;9.30;87.60
16116;DHT22;8162;47.104;15.432;2022-11-15T00:05:44;9.30;87.70
16116;DHT22;8162;47.104;15.432;2022-11-15T00:08:10;9.30;87.80
16116;DHT22;8162;47.104;15.432;2022-11-15T00:10:36;9.20;87.90
16116;DHT22;8162;47.104;15.432;2022-11-15T00:13:12;9.20;88.00
16116;DHT22;8162;47.104;15.432;2022-11-15T00:15:39;9.20;88.10
16116;DHT22;8162;47.104;15.432;2022-11-15T00:18:10;9.20;88.00
16116;DHT22;8162;47.104;15.432;2022-11-15T00:20:37;9.20;88.20
16116;DHT22;8162;47.104;15.432;2022-11-15T00:23:06;9.10;88.20
16116;DHT22;8162;47.104;15.432;2022-11-15T00:25:32;9.10;88.20
16116;DHT22;8162;47.104;15.432;2022-11-15T00:27:59;9.10;88.30
16116;DHT22;8162;47.104;15.432;2022-11-15T00:30:25;9.10;88.30
16116;DHT22;8162;47.104;15.432;2022-11-15T00:32:51;9.10;88.30
16116;DHT22;8162;47.104;15.432;2022-11-15T00:35:17;9.10;88.20
16116;DHT22;8162;47.104;15.432;2022-11-15T00:37:43;9.00;88.20
16116;DHT22;8162;47.104;15.432;2022-11-15T00:40:09;9.00;88.60
16116;DHT22;8162;47.104;15.432;2022-11-15T00:42:35;9.00;88.70
16116;DHT22;8162;47.104;15.432;2022-11-15T00:45:01;9.00;88.60
16116;DHT22;8162;47.104;15.432;2022-11-15T00:47:27;9.00;88.60
16116;DHT22;8162;47.104;15.432;2022-11-15T00:49:52;9.00;88.60
16116;DHT22;8162;47.104;15.432;2022-11-15T00:52:18;9.00;88.60
16116;DHT22;8162;47.104;15.432;2022-11-15T00:54:44;9.00;88.50
16116;DHT22;8162;47.104;15.432;2022-11-15T00:57:10;9.10;88.50
16116;DHT22;8162;47.104;15.432;2022-11-15T00:59:35;9.10;88.50
16116;DHT22;8162;47.104;15.432;2022-11-15T01:02:01;9.10;88.40
16116;DHT22;8162;47.104;15.432;2022-11-15T01:04:27;9.00;88.40
16116;DHT22;8162;47.104;15.432;2022-11-15T01:06:53;9.10;88.30
16116;DHT22;8162;47.104;15.432;2022-11-15T01:09:18;9.10;88.30
16116;DHT22;8162;47.104;15.432;2022-11-15T01:11:44;9.10;88.20
16116;DHT22;8162;47.104;15.432;2022-11-15T01:14:10;9.10;88.20
16116;DHT22;8162;47.104;15.432;2022-11-15T01:16:35;9.10;88.20
16116;DHT22;8162;47.104;15.432;2022-11-15T01:19:02;9.10;88.10
16116;DHT22;8162;47.104;15.432;2022-11-15T01:21:28;9.10;88.20
16116;DHT22;8162;47.104;15.432;2022-11-15T01:23:57;9.10;88.20
16116;DHT22;8162;47.104;15.432;2022-11-15T01:26:24;9.10;88.10
16116;DHT22;8162;47.104;15.432;2022-11-15T01:28:50;9.20;88.10
16116;DHT22;8162;47.104;15.432;2022-11-15T01:31:18;9.20;88.10
16116;DHT22;8162;47.104;15.432;2022-11-15T01:33:44;9.20;88.10
16116;DHT22;8162;47.104;15.432;2022-11-15T01:36:19;9.20;88.10
16116;DHT22;8162;47.104;15.432;2022-11-15T01:38:47;9.20;88.10
16116;DHT22;8162;47.104;15.432;2022-11-15T01:41:20;9.20;88.10
16116;DHT22;8162;47.104;15.432;2022-11-15T01:43:49;9.20;88.10
16116;DHT22;8162;47.104;15.432;2022-11-15T01:46:30;9.20;88.10
16116;DHT22;8162;47.104;15.432;2022-11-15T01:49:02;9.10;88.10
16116;DHT22;8162;47.104;15.432;2022-11-15T01:51:30;9.10;88.20
16116;DHT22;8162;47.104;15.432;2022-11-15T01:54:00;9.10;88.20
16116;DHT22;8162;47.104;15.432;2022-11-15T01:56:30;9.00;88.70
16116;DHT22;8162;47.104;15.432;2022-11-15T01:58:58;8.90;88.80
16116;DHT22;8162;47.104;15.432;2022-11-15T02:01:25;8.90;89.00
16116;DHT22;8162;47.104;15.432;2022-11-15T02:03:57;8.80;89.10
16116;DHT22;8162;47.104;15.432;2022-11-15T02:06:24;8.90;89.00
16116;DHT22;8162;47.104;15.432;2022-11-15T02:08:50;8.90;89.00
16116;DHT22;8162;47.104;15.432;2022-11-15T02:11:16;8.90;88.90
16116;DHT22;8162;47.104;15.432;2022-11-15T02:13:42;9.00;88.90
16116;DHT22;8162;47.104;15.432;2022-11-15T02:16:21;9.00;88.80
16116;DHT22;8162;47.104;15.432;2022-11-15T02:30:19;9.10;88.40
16116;DHT22;8162;47.104;15.432;2022-11-15T02:32:52;9.10;88.30
16116;DHT22;8162;47.104;15.432;2022-11-15T02:37:59;9.10;88.30
16116;DHT22;8162;47.104;15.432;2022-11-15T02:40:49;9.10;88.10
16116;DHT22;8162;47.104;15.432;2022-11-15T02:43:25;9.00;88.20
16116;DHT22;8162;47.104;15.432;2022-11-15T02:46:39;9.00;88.40
16116;DHT22;8162;47.104;15.432;2022-11-15T02:49:23;9.00;88.50
16116;DHT22;8162;47.104;15.432;2022-11-15T02:51:51;8.90;88.50
16116;DHT22;8162;47.104;15.432;2022-11-15T02:54:23;9.00;88.40
16116;DHT22;8162;47.104;15.432;2022-11-15T02:56:50;9.00;88.40
16116;DHT22;8162;47.104;15.432;2022-11-15T03:04:53;9.00;88.40
16116;DHT22;8162;47.104;15.432;2022-11-15T03:07:29;9.00;88.40
16116;DHT22;8162;47.104;15.432;2022-11-15T03:10:05;9.00;88.40
16116;DHT22;8162;47.104;15.432;2022-11-15T03:13:05;8.90;88.50
16116;DHT22;8162;47.104;15.432;2022-11-15T03:15:39;9.00;88.50
16116;DHT22;8162;47.104;15.432;2022-11-15T03:18:15;9.00;88.50
16116;DHT22;8162;47.104;15.432;2022-11-15T03:20:46;9.00;88.40
16116;DHT22;8162;47.104;15.432;2022-11-15T03:23:12;9.00;88.40
16116;DHT22;8162;47.104;15.432;2022-11-15T03:25:42;9.00;88.40
16116;DHT22;8162;47.104;15.432;2022-11-15T03:28:11;9.00;88.30
16116;DHT22;8162;47.104;15.432;2022-11-15T03:30:38;9.00;88.30
16116;DHT22;8162;47.104;15.432;2022-11-15T03:33:05;9.00;88.30
16116;DHT22;8162;47.104;15.432;2022-11-15T03:35:37;9.00;88.30
16116;DHT22;8162;47.104;15.432;2022-11-15T03:38:09;9.00;88.30
16116;DHT22;8162;47.104;15.432;2022-11-15T03:43:37;9.00;88.30
16116;DHT22;8162;47.104;15.432;2022-11-15T03:48:52;9.00;88.40
16116;DHT22;8162;47.104;15.432;2022-11-15T03:51:19;9.00;88.30
16116;DHT22;8162;47.104;15.432;2022-11-15T03:53:45;9.00;88.30
16116;DHT22;8162;47.104;15.432;2022-11-15T03:56:11;8.90;88.30
16116;DHT22;8162;47.104;15.432;2022-11-15T03:58:37;8.90;88.40
16116;DHT22;8162;47.104;15.432;2022-11-15T04:01:03;8.90;88.40
16116;DHT22;8162;47.104;15.432;2022-11-15T04:03:28;8.90;88.50
16116;DHT22;8162;47.104;15.432;2022-11-15T04:05:54;8.90;88.50
16116;DHT22;8162;47.104;15.432;2022-11-15T04:08:19;8.90;88.50
16116;DHT22;8162;47.104;15.432;2022-11-15T04:10:48;8.90;88.50
16116;DHT22;8162;47.104;15.432;2022-11-15T04:13:13;8.80;88.50
16116;DHT22;8162;47.104;15.432;2022-11-15T04:15:39;8.80;88.60
16116;DHT22;8162;47.104;15.432;2022-11-15T04:18:05;8.90;88.60
16116;DHT22;8162;47.104;15.432;2022-11-15T04:20:30;8.80;88.50
16116;DHT22;8162;47.104;15.432;2022-11-15T04:23:17;8.80;88.50
16116;DHT22;8162;47.104;15.432;2022-11-15T04:26:06;8.80;88.50
16116;DHT22;8162;47.104;15.432;2022-11-15T04:28:32;8.80;88.50
16116;DHT22;8162;47.104;15.432;2022-11-15T04:30:58;8.80;88.50
16116;DHT22;8162;47.104;15.432;2022-11-15T04:33:24;8.80;88.50
16116;DHT22;8162;47.104;15.432;2022-11-15T04:35:50;8.80;88.60
16116;DHT22;8162;47.104;15.432;2022-11-15T04:38:36;8.80;88.50
16116;DHT22;8162;47.104;15.432;2022-11-15T04:41:02;8.80;88.50
16116;DHT22;8162;47.104;15.432;2022-11-15T04:43:28;8.90;88.50
16116;DHT22;8162;47.104;15.432;2022-11-15T04:45:54;8.80;88.50
16116;DHT22;8162;47.104;15.432;2022-11-15T04:48:20;8.90;88.50
16116;DHT22;8162;47.104;15.432;2022-11-15T04:50:48;8.80;88.50
16116;DHT22;8162;47.104;15.432;2022-11-15T04:53:13;8.80;88.50
16116;DHT22;8162;47.104;15.432;2022-11-15T04:55:39;8.80;88.50
16116;DHT22;8162;47.104;15.432;2022-11-15T04:58:04;8.80;88.50
16116;DHT22;8162;47.104;15.432;2022-11-15T05:00:30;8.80;88.50
16116;DHT22;8162;47.104;15.432;2022-11-15T05:02:56;8.80;88.50
16116;DHT22;8162;47.104;15.432;2022-11-15T05:05:41;8.80;88.50
16116;DHT22;8162;47.104;15.432;2022-11-15T05:08:07;8.80;88.40
16116;DHT22;8162;47.104;15.432;2022-11-15T05:10:33;8.70;88.60
16116;DHT22;8162;47.104;15.432;2022-11-15T05:12:58;8.70;88.70
16116;DHT22;8162;47.104;15.432;2022-11-15T05:15:24;8.70;88.70
16116;DHT22;8162;47.104;15.432;2022-11-15T05:17:50;8.70;88.70
16116;DHT22;8162;47.104;15.432;2022-11-15T05:20:15;8.70;88.60
16116;DHT22;8162;47.104;15.432;2022-11-15T05:22:41;8.70;88.60
16116;DHT22;8162;47.104;15.432;2022-11-15T05:25:07;8.70;88.60
16116;DHT22;8162;47.104;15.432;2022-11-15T05:27:34;8.70;88.60
16116;DHT22;8162;47.104;15.432;2022-11-15T05:29:59;8.80;88.60
16116;DHT22;8162;47.104;15.432;2022-11-15T05:32:25;8.70;88.60
16116;DHT22;8162;47.104;15.432;2022-11-15T05:34:51;8.80;88.60
16116;DHT22;8162;47.104;15.432;2022-11-15T05:37:17;8.80;88.60
16116;DHT22;8162;47.104;15.432;2022-11-15T05:39:43;8.80;88.60
16116;DHT22;8162;47.104;15.432;2022-11-15T05:42:16;8.80;88.50
16116;DHT22;8162;47.104;15.432;2022-11-15T05:44:46;8.80;88.50
16116;DHT22;8162;47.104;15.432;2022-11-15T05:47:17;8.80;88.50
16116;DHT22;8162;47.104;15.432;2022-11-15T05:49:44;8.80;88.40
16116;DHT22;8162;47.104;15.432;2022-11-15T05:52:14;8.90;88.30
16116;DHT22;8162;47.104;15.432;2022-11-15T05:54:42;8.90;88.30
16116;DHT22;8162;47.104;15.432;2022-11-15T05:57:08;8.90;88.20
16116;DHT22;8162;47.104;15.432;2022-11-15T05:59:34;8.90;88.10
16116;DHT22;8162;47.104;15.432;2022-11-15T06:02:00;8.90;88.10
16116;DHT22;8162;47.104;15.432;2022-11-15T06:04:26;9.00;88.10
16116;DHT22;8162;47.104;15.432;2022-11-15T06:06:52;9.00;88.00
16116;DHT22;8162;47.104;15.432;2022-11-15T06:09:17;9.00;88.00
16116;DHT22;8162;47.104;15.432;2022-11-15T06:11:43;9.00;87.90
16116;DHT22;8162;47.104;15.432;2022-11-15T06:14:09;9.00;88.00
16116;DHT22;8162;47.104;15.432;2022-11-15T06:16:34;9.00;87.90
16116;DHT22;8162;47.104;15.432;2022-11-15T06:19:00;9.00;87.80
16116;DHT22;8162;47.104;15.432;2022-11-15T06:21:25;8.90;87.80
16116;DHT22;8162;47.104;15.432;2022-11-15T06:23:53;9.00;87.90
16116;DHT22;8162;47.104;15.432;2022-11-15T06:26:19;8.90;87.80
16116;DHT22;8162;47.104;15.432;2022-11-15T06:28:45;8.90;87.90
16116;DHT22;8162;47.104;15.432;2022-11-15T06:31:11;8.90;87.90
16116;DHT22;8162;47.104;15.432;2022-11-15T06:33:40;8.90;87.80
16116;DHT22;8162;47.104;15.432;2022-11-15T06:36:08;8.90;87.80
16116;DHT22;8162;47.104;15.432;2022-11-15T06:38:35;8.90;87.80
16116;DHT22;8162;47.104;15.432;2022-11-15T06:41:02;8.90;87.80
16116;DHT22;8162;47.104;15.432;2022-11-15T06:43:28;8.90;87.70
16116;DHT22;8162;47.104;15.432;2022-11-15T06:45:54;8.90;87.70
16116;DHT22;8162;47.104;15.432;2022-11-15T06:48:19;8.90;87.80
16116;DHT22;8162;47.104;15.432;2022-11-15T06:50:54;9.00;87.70
16116;DHT22;8162;47.104;15.432;2022-11-15T06:53:20;9.00;87.70
16116;DHT22;8162;47.104;15.432;2022-11-15T06:55:45;9.00;87.60
16116;DHT22;8162;47.104;15.432;2022-11-15T06:58:11;9.00;87.50
16116;DHT22;8162;47.104;15.432;2022-11-15T07:00:37;9.10;87.50
16116;DHT22;8162;47.104;15.432;2022-11-15T07:03:03;9.10;87.50
16116;DHT22;8162;47.104;15.432;2022-11-15T07:05:29;9.10;87.30
16116;DHT22;8162;47.104;15.432;2022-11-15T07:07:56;9.10;87.30
16116;DHT22;8162;47.104;15.432;2022-11-15T07:10:24;9.10;87.60
16116;DHT22;8162;47.104;15.432;2022-11-15T07:12:53;9.00;87.90
16116;DHT22;8162;47.104;15.432;2022-11-15T07:15:23;8.90;88.40
16116;DHT22;8162;47.104;15.432;2022-11-15T07:17:50;8.80;89.20
16116;DHT22;8162;47.104;15.432;2022-11-15T07:20:16;8.80;89.30
16116;DHT22;8162;47.104;15.432;2022-11-15T07:22:43;8.80;89.40
16116;DHT22;8162;47.104;15.432;2022-11-15T07:25:10;8.80;89.40
16116;DHT22;8162;47.104;15.432;2022-11-15T07:27:37;8.80;89.30
16116;DHT22;8162;47.104;15.432;2022-11-15T07:30:03;8.80;89.30
16116;DHT22;8162;47.104;15.432;2022-11-15T07:32:29;8.90;89.30
16116;DHT22;8162;47.104;15.432;2022-11-15T07:34:55;8.90;89.30
16116;DHT22;8162;47.104;15.432;2022-11-15T07:37:20;8.90;89.30
16116;DHT22;8162;47.104;15.432;2022-11-15T07:39:46;8.90;89.30
16116;DHT22;8162;47.104;15.432;2022-11-15T07:42:12;8.90;89.30
16116;DHT22;8162;47.104;15.432;2022-11-15T07:44:58;8.90;89.20
16116;DHT22;8162;47.104;15.432;2022-11-15T07:47:23;9.00;89.10
16116;DHT22;8162;47.104;15.432;2022-11-15T07:49:49;9.00;89.00
16116;DHT22;8162;47.104;15.432;2022-11-15T07:52:15;9.00;89.00
16116;DHT22;8162;47.104;15.432;2022-11-15T07:54:41;9.00;88.90
16116;DHT22;8162;47.104;15.432;2022-11-15T07:57:06;9.10;88.80
16116;DHT22;8162;47.104;15.432;2022-11-15T07:59:34;9.10;88.60
16116;DHT22;8162;47.104;15.432;2022-11-15T08:02:00;9.10;88.60
16116;DHT22;8162;47.104;15.432;2022-11-15T08:04:26;9.20;88.50
16116;DHT22;8162;47.104;15.432;2022-11-15T08:06:51;9.20;88.30
16116;DHT22;8162;47.104;15.432;2022-11-15T08:09:17;9.30;88.10
16116;DHT22;8162;47.104;15.432;2022-11-15T08:11:43;9.30;88.00
16116;DHT22;8162;47.104;15.432;2022-11-15T08:14:08;9.30;87.80
16116;DHT22;8162;47.104;15.432;2022-11-15T08:16:34;9.30;87.60
16116;DHT22;8162;47.104;15.432;2022-11-15T08:19:00;9.30;87.60
16116;DHT22;8162;47.104;15.432;2022-11-15T08:21:25;9.30;87.30
16116;DHT22;8162;47.104;15.432;2022-11-15T08:23:51;9.30;87.30
16116;DHT22;8162;47.104;15.432;2022-11-15T08:26:17;9.40;87.30
16116;DHT22;8162;47.104;15.432;2022-11-15T08:28:43;9.30;87.00
16116;DHT22;8162;47.104;15.432;2022-11-15T08:31:16;9.40;87.00
16116;DHT22;8162;47.104;15.432;2022-11-15T08:33:43;9.40;86.50
16116;DHT22;8162;47.104;15.432;2022-11-15T08:36:13;9.30;86.40
16116;DHT22;8162;47.104;15.432;2022-11-15T08:38:40;9.40;86.20
16116;DHT22;8162;47.104;15.432;2022-11-15T08:41:05;9.40;86.20
16116;DHT22;8162;47.104;15.432;2022-11-15T08:43:31;9.50;85.50
16116;DHT22;8162;47.104;15.432;2022-11-15T08:45:58;9.50;85.80
16116;DHT22;8162;47.104;15.432;2022-11-15T08:48:23;9.60;85.90
16116;DHT22;8162;47.104;15.432;2022-11-15T08:50:52;9.80;85.50
16116;DHT22;8162;47.104;15.432;2022-11-15T08:53:18;9.80;85.30
16116;DHT22;8162;47.104;15.432;2022-11-15T08:55:44;9.90;85.10
16116;DHT22;8162;47.104;15.432;2022-11-15T08:58:09;10.00;84.90
16116;DHT22;8162;47.104;15.432;2022-11-15T09:00:35;10.10;84.50
16116;DHT22;8162;47.104;15.432;2022-11-15T09:03:04;10.20;84.40
16116;DHT22;8162;47.104;15.432;2022-11-15T09:05:30;10.30;83.90
16116;DHT22;8162;47.104;15.432;2022-11-15T09:07:56;10.30;83.50
16116;DHT22;8162;47.104;15.432;2022-11-15T09:10:22;10.40;83.10
16116;DHT22;8162;47.104;15.432;2022-11-15T09:12:48;10.40;82.90
16116;DHT22;8162;47.104;15.432;2022-11-15T09:15:15;10.50;82.20
16116;DHT22;8162;47.104;15.432;2022-11-15T09:17:41;10.50;81.80
16116;DHT22;8162;47.104;15.432;2022-11-15T09:20:08;10.50;81.40
16116;DHT22;8162;47.104;15.432;2022-11-15T09:22:34;10.50;81.40
16116;DHT22;8162;47.104;15.432;2022-11-15T09:24:59;10.40;81.10
16116;DHT22;8162;47.104;15.432;2022-11-15T09:27:32;10.50;81.20
16116;DHT22;8162;47.104;15.432;2022-11-15T09:29:57;10.50;80.80
16116;DHT22;8162;47.104;15.432;2022-11-15T09:32:23;10.40;81.00
16116;DHT22;8162;47.104;15.432;2022-11-15T09:34:52;10.50;81.40
16116;DHT22;8162;47.104;15.432;2022-11-15T09:37:17;10.50;81.60
16116;DHT22;8162;47.104;15.432;2022-11-15T09:39:43;10.30;81.90
16116;DHT22;8162;47.104;15.432;2022-11-15T09:42:22;10.30;82.40
16116;DHT22;8162;47.104;15.432;2022-11-15T09:49:59;10.30;82.70
16116;DHT22;8162;47.104;15.432;2022-11-15T09:52:27;10.40;82.60
16116;DHT22;8162;47.104;15.432;2022-11-15T09:54:53;10.50;82.40
16116;DHT22;8162;47.104;15.432;2022-11-15T10:05:19;10.60;81.70
16116;DHT22;8162;47.104;15.432;2022-11-15T10:08:04;10.60;81.90
16116;DHT22;8162;47.104;15.432;2022-11-15T10:10:43;10.60;82.00
16116;DHT22;8162;47.104;15.432;2022-11-15T10:13:22;10.70;81.70
16116;DHT22;8162;47.104;15.432;2022-11-15T10:15:50;10.80;81.50
16116;DHT22;8162;47.104;15.432;2022-11-15T10:20:49;10.80;81.40
16116;DHT22;8162;47.104;15.432;2022-11-15T10:23:18;10.80;80.70
16116;DHT22;8162;47.104;15.432;2022-11-15T10:25:44;10.80;81.00
16116;DHT22;8162;47.104;15.432;2022-11-15T10:28:17;10.80;80.60
16116;DHT22;8162;47.104;15.432;2022-11-15T10:30:49;11.00;81.20
16116;DHT22;8162;47.104;15.432;2022-11-15T10:33:34;11.00;80.90
16116;DHT22;8162;47.104;15.432;2022-11-15T10:41:18;11.00;81.60
16116;DHT22;8162;47.104;15.432;2022-11-15T10:43:45;11.00;81.70
16116;DHT22;8162;47.104;15.432;2022-11-15T10:46:21;11.10;81.10
16116;DHT22;8162;47.104;15.432;2022-11-15T10:48:47;11.00;81.40
16116;DHT22;8162;47.104;15.432;2022-11-15T10:51:27;10.90;81.70
16116;DHT22;8162;47.104;15.432;2022-11-15T10:53:56;10.80;82.00
16116;DHT22;8162;47.104;15.432;2022-11-15T10:56:24;10.70;82.80
16116;DHT22;8162;47.104;15.432;2022-11-15T10:58:54;10.80;82.70
16116;DHT22;8162;47.104;15.432;2022-11-15T11:01:26;10.80;82.50
16116;DHT22;8162;47.104;15.432;2022-11-15T11:04:09;10.70;82.50
16116;DHT22;8162;47.104;15.432;2022-11-15T11:06:55;10.60;82.40
16116;DHT22;8162;47.104;15.432;2022-11-15T11:11:53;10.50;82.80
16116;DHT22;8162;47.104;15.432;2022-11-15T11:14:39;10.40;83.30
16116;DHT22;8162;47.104;15.432;2022-11-15T11:30:54;10.60;83.60
16116;DHT22;8162;47.104;15.432;2022-11-15T11:33:32;10.60;83.30
16116;DHT22;8162;47.104;15.432;2022-11-15T11:36:05;10.60;83.20
16116;DHT22;8162;47.104;15.432;2022-11-15T11:44:33;10.90;83.20
16116;DHT22;8162;47.104;15.432;2022-11-15T11:50:12;11.00;81.90
16116;DHT22;8162;47.104;15.432;2022-11-15T11:52:56;11.10;81.80
16116;DHT22;8162;47.104;15.432;2022-11-15T12:01:36;11.00;81.10
16116;DHT22;8162;47.104;15.432;2022-11-15T12:04:19;11.00;81.00
16116;DHT22;8162;47.104;15.432;2022-11-15T12:06:59;11.10;81.10
16116;DHT22;8162;47.104;15.432;2022-11-15T12:12:01;11.10;80.70
16116;DHT22;8162;47.104;15.432;2022-11-15T12:16:59;11.00;80.70
16116;DHT22;8162;47.104;15.432;2022-11-15T12:19:26;11.10;81.10
16116;DHT22;8162;47.104;15.432;2022-11-15T12:21:57;11.00;81.10
16116;DHT22;8162;47.104;15.432;2022-11-15T12:24:35;11.00;81.00
16116;DHT22;8162;47.104;15.432;2022-11-15T12:29:49;11.00;80.90
16116;DHT22;8162;47.104;15.432;2022-11-15T12:32:30;11.00;81.00
16116;DHT22;8162;47.104;15.432;2022-11-15T12:34:57;11.00;81.20
16116;DHT22;8162;47.104;15.432;2022-11-15T12:40:17;11.00;81.20
16116;DHT22;8162;47.104;15.432;2022-11-15T12:45:40;11.10;81.10
16116;DHT22;8162;47.104;15.432;2022-11-15T12:58:57;11.10;80.90
16116;DHT22;8162;47.104;15.432;2022-11-15T13:07:00;11.00;80.70
16116;DHT22;8162;47.104;15.432;2022-11-15T13:19:46;10.60;81.70
16116;DHT22;8162;47.104;15.432;2022-11-15T13:22:12;10.40;82.10
16116;DHT22;8162;47.104;15.432;2022-11-15T13:24:57;10.30;82.60
16116;DHT22;8162;47.104;15.432;2022-11-15T13:27:24;10.30;82.80
16116;DHT22;8162;47.104;15.432;2022-11-15T13:29:50;10.30;82.70
16116;DHT22;8162;47.104;15.432;2022-11-15T13:32:18;10.20;82.80
16116;DHT22;8162;47.104;15.432;2022-11-15T13:34:46;10.10;83.40
16116;DHT22;8162;47.104;15.432;2022-11-15T13:39:48;10.00;83.70
16116;DHT22;8162;47.104;15.432;2022-11-15T13:42:16;10.10;83.50
16116;DHT22;8162;47.104;15.432;2022-11-15T13:45:04;10.10;83.60
16116;DHT22;8162;47.104;15.432;2022-11-15T13:47:30;10.10;83.60
16116;DHT22;8162;47.104;15.432;2022-11-15T13:49:57;10.00;84.00
16116;DHT22;8162;47.104;15.432;2022-11-15T13:52:28;10.00;83.70
16116;DHT22;8162;47.104;15.432;2022-11-15T13:55:16;10.10;83.70
16116;DHT22;8162;47.104;15.432;2022-11-15T14:00:45;10.10;83.60
16116;DHT22;8162;47.104;15.432;2022-11-15T14:03:27;10.20;83.60
16116;DHT22;8162;47.104;15.432;2022-11-15T14:06:11;10.10;83.60
16116;DHT22;8162;47.104;15.432;2022-11-15T14:08:39;10.10;83.70
16116;DHT22;8162;47.104;15.432;2022-11-15T14:11:14;10.10;83.80
16116;DHT22;8162;47.104;15.432;2022-11-15T14:13:41;10.10;83.80
16116;DHT22;8162;47.104;15.432;2022-11-15T14:16:19;10.10;83.90
16116;DHT22;8162;47.104;15.432;2022-11-15T14:18:50;10.00;83.60
16116;DHT22;8162;47.104;15.432;2022-11-15T14:21:17;10.00;83.60
16116;DHT22;8162;47.104;15.432;2022-11-15T14:23:43;10.00;83.90
16116;DHT22;8162;47.104;15.432;2022-11-15T14:26:32;10.00;83.90
16116;DHT22;8162;47.104;15.432;2022-11-15T14:29:21;10.00;83.90
16116;DHT22;8162;47.104;15.432;2022-11-15T14:31:51;10.00;83.90
16116;DHT22;8162;47.104;15.432;2022-11-15T14:34:16;10.10;84.10
16116;DHT22;8162;47.104;15.432;2022-11-15T14:36:42;10.00;83.90
16116;DHT22;8162;47.104;15.432;2022-11-15T14:39:08;10.10;84.00
16116;DHT22;8162;47.104;15.432;2022-11-15T14:41:35;10.10;84.00
16116;DHT22;8162;47.104;15.432;2022-11-15T14:44:05;10.10;84.00
16116;DHT22;8162;47.104;15.432;2022-11-15T14:46:31;10.10;84.00
16116;DHT22;8162;47.104;15.432;2022-11-15T14:48:57;10.10;84.00
16116;DHT22;8162;47.104;15.432;2022-11-15T14:51:23;10.10;84.00
16116;DHT22;8162;47.104;15.432;2022-11-15T14:53:48;10.00;84.00
16116;DHT22;8162;47.104;15.432;2022-11-15T14:56:14;10.00;84.10
16116;DHT22;8162;47.104;15.432;2022-11-15T14:58:42;10.00;84.20
16116;DHT22;8162;47.104;15.432;2022-11-15T15:01:23;9.90;84.10
16116;DHT22;8162;47.104;15.432;2022-11-15T15:03:49;9.90;84.40
16116;DHT22;8162;47.104;15.432;2022-11-15T15:06:17;9.90;84.20
16116;DHT22;8162;47.104;15.432;2022-11-15T15:08:44;9.90;84.20
16116;DHT22;8162;47.104;15.432;2022-11-15T15:11:30;9.90;84.00
16116;DHT22;8162;47.104;15.432;2022-11-15T15:13:57;9.80;84.10
16116;DHT22;8162;47.104;15.432;2022-11-15T15:16:25;9.70;84.50
16116;DHT22;8162;47.104;15.432;2022-11-15T15:18:52;9.70;84.70
16116;DHT22;8162;47.104;15.432;2022-11-15T15:21:27;9.70;84.60
16116;DHT22;8162;47.104;15.432;2022-11-15T15:23:53;9.70;85.00
16116;DHT22;8162;47.104;15.432;2022-11-15T15:26:20;9.60;85.20
16116;DHT22;8162;47.104;15.432;2022-11-15T15:28:46;9.60;85.20
16116;DHT22;8162;47.104;15.432;2022-11-15T15:31:14;9.60;85.20
16116;DHT22;8162;47.104;15.432;2022-11-15T15:33:39;9.60;85.40
16116;DHT22;8162;47.104;15.432;2022-11-15T15:36:12;9.60;85.40
16116;DHT22;8162;47.104;15.432;2022-11-15T15:38:38;9.60;85.40
16116;DHT22;8162;47.104;15.432;2022-11-15T15:41:13;9.70;85.30
16116;DHT22;8162;47.104;15.432;2022-11-15T15:43:40;9.60;85.30
16116;DHT22;8162;47.104;15.432;2022-11-15T15:46:14;9.60;85.30
16116;DHT22;8162;47.104;15.432;2022-11-15T15:48:40;9.60;85.40
16116;DHT22;8162;47.104;15.432;2022-11-15T15:51:06;9.50;85.50
16116;DHT22;8162;47.104;15.432;2022-11-15T15:53:33;9.50;85.50
16116;DHT22;8162;47.104;15.432;2022-11-15T15:55:59;9.60;85.60
16116;DHT22;8162;47.104;15.432;2022-11-15T15:58:24;9.50;85.60
16116;DHT22;8162;47.104;15.432;2022-11-15T16:00:50;9.50;85.50
16116;DHT22;8162;47.104;15.432;2022-11-15T16:03:16;9.50;85.50
16116;DHT22;8162;47.104;15.432;2022-11-15T16:05:41;9.50;85.50
16116;DHT22;8162;47.104;15.432;2022-11-15T16:08:20;9.50;85.60
16116;DHT22;8162;47.104;15.432;2022-11-15T16:10:47;9.50;85.50
16116;DHT22;8162;47.104;15.432;2022-11-15T16:13:13;9.50;85.40
16116;DHT22;8162;47.104;15.432;2022-11-15T16:15:38;9.50;85.40
16116;DHT22;8162;47.104;15.432;2022-11-15T16:18:05;9.50;85.50
16116;DHT22;8162;47.104;15.432;2022-11-15T16:20:39;9.40;85.50
16116;DHT22;8162;47.104;15.432;2022-11-15T16:23:15;9.40;85.60
16116;DHT22;8162;47.104;15.432;2022-11-15T16:25:51;9.40;85.80
16116;DHT22;8162;47.104;15.432;2022-11-15T16:28:35;9.40;85.80
16116;DHT22;8162;47.104;15.432;2022-11-15T16:31:11;9.50;85.80
16116;DHT22;8162;47.104;15.432;2022-11-15T16:33:37;9.50;85.80
16116;DHT22;8162;47.104;15.432;2022-11-15T16:38:44;9.40;86.00
16116;DHT22;8162;47.104;15.432;2022-11-15T16:41:10;9.50;86.00
16116;DHT22;8162;47.104;15.432;2022-11-15T16:43:37;9.50;85.90
16116;DHT22;8162;47.104;15.432;2022-11-15T16:46:11;9.50;85.90
16116;DHT22;8162;47.104;15.432;2022-11-15T16:48:37;9.50;85.90
16116;DHT22;8162;47.104;15.432;2022-11-15T16:51:04;9.50;85.80
16116;DHT22;8162;47.104;15.432;2022-11-15T16:53:30;9.50;85.80
16116;DHT22;8162;47.104;15.432;2022-11-15T16:55:56;9.50;85.80
16116;DHT22;8162;47.104;15.432;2022-11-15T16:58:22;9.50;85.80
16116;DHT22;8162;47.104;15.432;2022-11-15T17:00:52;9.50;85.80
16116;DHT22;8162;47.104;15.432;2022-11-15T17:03:19;9.50;85.70
16116;DHT22;8162;47.104;15.432;2022-11-15T17:05:45;9.50;85.90
16116;DHT22;8162;47.104;15.432;2022-11-15T17:08:11;9.50;85.90
16116;DHT22;8162;47.104;15.432;2022-11-15T17:10:39;9.50;85.90
16116;DHT22;8162;47.104;15.432;2022-11-15T17:13:11;9.50;85.80
16116;DHT22;8162;47.104;15.432;2022-11-15T17:15:38;9.50;85.80
16116;DHT22;8162;47.104;15.432;2022-11-15T17:18:04;9.50;85.80
16116;DHT22;8162;47.104;15.432;2022-11-15T17:20:30;9.50;85.80
16116;DHT22;8162;47.104;15.432;2022-11-15T17:22:56;9.50;85.80
16116;DHT22;8162;47.104;15.432;2022-11-15T17:25:24;9.50;85.80
16116;DHT22;8162;47.104;15.432;2022-11-15T17:27:49;9.50;85.80
16116;DHT22;8162;47.104;15.432;2022-11-15T17:30:15;9.50;85.80
16116;DHT22;8162;47.104;15.432;2022-11-15T17:32:43;9.50;85.80
16116;DHT22;8162;47.104;15.432;2022-11-15T17:35:10;9.50;86.00
16116;DHT22;8162;47.104;15.432;2022-11-15T17:37:37;9.40;86.00
16116;DHT22;8162;47.104;15.432;2022-11-15T17:40:04;9.40;86.00
16116;DHT22;8162;47.104;15.432;2022-11-15T17:42:30;9.40;86.00
16116;DHT22;8162;47.104;15.432;2022-11-15T17:44:57;9.40;85.90
16116;DHT22;8162;47.104;15.432;2022-11-15T17:47:22;9.50;86.00
16116;DHT22;8162;47.104;15.432;2022-11-15T17:49:48;9.50;86.00
16116;DHT22;8162;47.104;15.432;2022-11-15T17:52:14;9.40;85.90
16116;DHT22;8162;47.104;15.432;2022-11-15T17:54:40;9.50;85.90
16116;DHT22;8162;47.104;15.432;2022-11-15T17:57:06;9.50;85.90
16116;DHT22;8162;47.104;15.432;2022-11-15T17:59:32;9.50;85.90